Latest Weather Observations for Alice Springs Airport

IDD60801

Issued at 8:01 am CST Monday 20 April 2015 (issued every 30 minutes, with the page automatically refreshed every 10 minutes)

About weather observations | Map of weather stations | Latest weather observations for NT | Other Formats
Station Details ID: 015590 Name: ALICE SPRINGS AIRPORT Lat: -23.80 Lon: 133.89 Height: 546.0 m
Data from the previous 72 hours. | See also: Recent months at Alice Springs Airport
Date/Time
CST
Temp
°C
App
Temp
°C
Dew
Point
Rel
Hum
%
Delta-T
°C
Wind Press
QNH
hPa
Press
MSL
hPa
Rain
since 9 am
mm
Dir
 
Spd
km/h
Gust
km/h
Spd
kts
Gust
kts
20/07:45am 12.7 5.5 3.0 51 4.4 ESE 30 52 16 28 1029.3 1027.2 0.0
20/07:30am 12.5 7.1 4.6 58 3.7 SE 22 35 12 19 1029.0 1026.9 0.0
20/07:00am 12.6 7.5 6.2 65 3.1 SE 22 32 12 17 1028.7 1026.6 0.0
20/06:30am 12.9 7.8 6.1 63 3.3 SE 22 33 12 18 1028.1 1025.9 0.0
20/05:30am 13.8 7.1 5.8 58 3.9 SE 30 41 16 22 1027.2 1025.1 0.0
20/05:00am 14.3 7.7 6.2 58 4.0 SE 30 41 16 22 1026.9 1024.8 0.0
20/04:30am 14.7 8.6 6.4 57 4.1 SE 28 37 15 20 1026.8 1024.7 0.0
20/04:00am 14.9 8.9 6.9 58 4.0 SE 28 39 15 21 1026.8 1024.7 0.0
20/03:30am 14.9 9.7 7.4 61 3.8 SE 24 32 13 17 1026.8 1024.7 0.0
20/03:00am 15.2 9.7 7.5 60 3.9 SE 26 37 14 20 1026.9 1024.8 0.0
20/02:30am 15.2 9.8 8.0 62 3.7 SE 26 37 14 20 1027.0 1024.9 0.0
20/02:00am 15.4 11.2 8.2 62 3.7 SE 20 33 11 18 1027.0 1024.9 0.0
20/01:30am 15.7 11.4 7.7 59 4.1 SE 20 32 11 17 1027.3 1025.2 0.0
20/01:00am 15.6 11.3 7.1 57 4.3 SE 19 26 10 14 1027.4 1025.3 0.0
20/12:30am 16.3 11.9 6.5 52 4.9 SE 19 30 10 16 1027.2 1025.1 0.0
20/12:00am 16.4 12.5 6.9 53 4.8 SE 17 26 9 14 1027.7 1025.5 0.0
 
Date/Time
CST
Temp
°C
App
Temp
°C
Dew
Point
Rel
Hum
%
Delta-T
°C
Wind Press
QNH
hPa
Press
MSL
hPa
Rain
since 9 am
mm
Dir
 
Spd
km/h
Gust
km/h
Spd
kts
Gust
kts
19/11:30pm 16.8 11.9 6.9 52 5.0 SE 22 33 12 18 1027.8 1025.6 0.0
19/11:00pm 17.0 12.5 7.0 51 5.1 SE 20 32 11 17 1028.0 1025.8 0.0
19/10:30pm 17.3 12.8 6.9 50 5.3 SE 20 35 11 19 1028.1 1025.9 0.0
19/10:00pm 17.7 12.8 6.9 49 5.5 SE 22 33 12 18 1028.0 1025.8 0.0
19/09:30pm 17.7 12.4 6.9 49 5.5 SE 24 33 13 18 1027.9 1025.7 0.0
19/09:00pm 17.7 13.3 6.4 47 5.7 SE 19 28 10 15 1027.7 1025.5 0.0
19/08:30pm 17.7 14.0 6.4 47 5.7 SE 15 20 8 11 1027.5 1025.4 0.0
19/08:00pm 18.0 13.2 5.8 44 6.1 SE 20 32 11 17 1027.0 1024.9 0.0
19/07:30pm 18.1 13.9 5.9 44 6.1 SE 17 26 9 14 1026.7 1024.6 0.0
19/07:00pm 18.2 14.1 6.1 45 6.1 SE 17 26 9 14 1026.5 1024.3 0.0
19/06:30pm 18.3 14.0 5.4 42 6.4 SE 17 22 9 12 1026.0 1023.8 0.0
19/06:00pm 18.8 13.8 4.8 39 6.9 SE 20 30 11 16 1025.9 1023.7 0.0
19/05:30pm 19.1 13.3 4.4 38 7.2 SE 24 33 13 18 1025.3 1023.2 0.0
19/05:00pm 19.5 13.5 3.6 35 7.7 SE 24 32 13 17 1025.1 1023.0 0.0
19/04:30pm 19.6 13.3 3.5 34 7.8 SE 26 33 14 18 1024.9 1022.7 0.0
19/04:00pm 19.9 13.9 3.4 33 8.0 SE 24 33 13 18 1024.7 1022.5 0.0
19/03:30pm 20.0 14.1 4.1 35 7.8 SE 24 33 13 18 1024.7 1022.5 0.0
19/03:00pm 19.9 13.7 4.3 35 7.7 SE 26 33 14 18 1024.8 1022.6 0.0
19/02:30pm 19.3 14.1 5.3 39 7.0 SE 22 32 12 17 1024.7 1022.5 0.0
19/02:00pm 19.4 13.4 5.5 40 7.0 SE 26 35 14 19 1025.0 1022.8 0.0
19/01:49pm 19.8 13.5 5.5 39 7.2 ESE 28 48 15 26 1025.0 1022.8 0.0
19/01:30pm 19.3 13.1 6.1 42 6.7 SE 28 41 15 22 1025.1 1023.0 0.0
19/01:00pm 19.0 12.4 5.9 42 6.6 SE 30 37 16 20 1025.5 1023.4 0.0
19/12:30pm 18.7 12.5 6.3 44 6.3 SE 28 35 15 19 1026.5 1024.3 0.0
19/12:00pm 18.6 12.4 6.1 44 6.3 SE 28 39 15 21 1026.6 1024.4 0.0
19/11:30am 18.0 11.5 6.3 46 5.9 SE 30 41 16 22 1027.0 1024.9 0.0
19/11:00am 18.6 12.1 6.7 46 6.1 SE 30 39 16 21 1027.4 1025.3 0.0
19/10:30am 18.2 11.4 7.1 48 5.7 ESE 32 46 17 25 1027.4 1025.3 0.0
19/10:00am 17.9 11.3 7.9 52 5.2 ESE 32 44 17 24 1027.5 1025.4 0.0
19/09:30am 17.2 10.8 8.4 56 4.6 ESE 32 44 17 24 1027.4 1025.3 0.0
19/09:00am 16.4 11.7 10.5 68 3.2 ESE 26 41 14 22 1027.1 1025.0 0.0
19/08:30am 15.4 12.4 10.8 74 2.5 SE 17 26 9 14 1026.4 1024.2 0.0
19/08:00am 14.5 12.5 11.4 82 1.7 SE 13 22 7 12 1026.0 1023.8 0.0
19/07:30am 12.7 11.1 11.6 93 0.6 S 11 13 6 7 1025.4 1023.3 0.0
19/07:00am 12.2 10.1 11.1 93 0.6 SSE 13 15 7 8 1024.6 1022.4 0.0
19/06:30am 11.6 9.8 10.8 95 0.4 S 11 13 6 7 1024.3 1022.1 0.0
19/06:00am 12.1 10.5 11.4 95 0.4 SSE 11 11 6 6 1024.0 1021.8 0.0
19/05:30am 12.7 11.6 11.8 94 0.5 SSE 9 9 5 5 1023.5 1021.4 0.0
19/05:00am 13.0 12.3 11.9 93 0.6 SSE 7 9 4 5 1023.5 1021.4 0.0
19/04:30am 13.4 12.3 11.9 91 0.8 SSE 9 11 5 6 1023.1 1020.9 0.0
19/04:00am 13.2 11.8 12.3 94 0.5 SSE 11 11 6 6 1023.1 1020.9 0.0
19/03:30am 13.8 12.6 12.7 93 0.6 SSE 11 11 6 6 1022.9 1020.7 0.0
19/03:00am 13.9 13.1 13.0 94 0.5 S 9 9 5 5 1023.0 1020.8 0.0
19/02:30am 14.3 13.6 13.2 93 0.6 SSW 9 9 5 5 1023.2 1021.0 0.0
19/02:00am 14.2 13.5 13.3 94 0.5 SSW 9 11 5 6 1023.6 1021.5 0.0
19/01:30am 14.2 13.6 13.5 96 0.4 SSW 9 9 5 5 1023.6 1021.5 0.0
19/01:00am 14.6 14.1 13.7 94 0.5 WSW 9 9 5 5 1024.1 1021.9 0.0
19/12:30am 14.9 14.9 13.7 92 0.7 WSW 6 7 3 4 1024.2 1022.0 0.0
19/12:00am 15.3 15.3 14.1 92 0.7 W 7 7 4 4 1024.1 1021.9 0.0
 
Date/Time
CST
Temp
°C
App
Temp
°C
Dew
Point
Rel
Hum
%
Delta-T
°C
Wind Press
QNH
hPa
Press
MSL
hPa
Rain
since 9 am
mm
Dir
 
Spd
km/h
Gust
km/h
Spd
kts
Gust
kts
18/11:30pm 15.2 16.5 14.2 94 0.6 CALM 0 0 0 0 1024.0 1021.8 0.0
18/11:00pm 15.2 15.3 14.0 92 0.7 WSW 6 7 3 4 1024.1 1021.9 0.0
18/10:30pm 15.5 17.0 14.6 94 0.5 CALM 0 0 0 0 1024.0 1021.8 0.0
18/10:00pm 16.0 17.4 14.5 91 0.9 CALM 0 0 0 0 1024.1 1021.9 0.0
18/09:30pm 16.1 17.4 14.2 88 1.1 CALM 0 0 0 0 1023.9 1021.7 0.0
18/09:00pm 16.2 17.5 14.1 87 1.2 CALM 0 0 0 0 1024.0 1021.8 0.0
18/08:30pm 16.7 16.4 13.2 80 2.0 E 7 9 4 5 1023.3 1021.1 0.0
18/08:00pm 17.1 18.1 13.3 78 2.2 CALM 0 6 0 3 1023.2 1021.0 0.0
18/07:30pm 17.0 16.3 13.2 78 2.2 E 9 9 5 5 1022.6 1020.4 0.0
18/07:00pm 17.5 16.7 12.8 74 2.7 SE 9 11 5 6 1022.4 1020.2 0.0
18/06:30pm 17.7 16.8 12.6 72 2.9 SE 9 13 5 7 1021.9 1019.7 0.0
18/06:00pm 18.0 16.2 12.0 68 3.4 ESE 13 17 7 9 1021.5 1019.3 0.0
18/05:30pm 18.3 16.0 11.9 66 3.6 SE 15 20 8 11 1021.2 1019.0 0.0
18/05:00pm 18.3 15.7 11.9 66 3.6 SE 17 24 9 13 1021.1 1018.9 0.0
18/04:30pm 18.5 16.7 12.0 66 3.7 SSE 13 20 7 11 1020.8 1018.6 0.0
18/04:00pm 18.4 16.6 12.0 66 3.6 SE 13 17 7 9 1020.9 1018.7 0.0
18/03:30pm 18.4 16.5 11.8 65 3.7 ESE 13 19 7 10 1021.0 1018.8 0.0
18/03:00pm 18.3 16.4 11.9 66 3.6 SE 13 19 7 10 1021.2 1019.0 0.0
18/02:30pm 18.2 15.9 11.8 66 3.6 SE 15 20 8 11 1021.3 1019.1 0.0
18/02:00pm 18.1 15.4 11.7 66 3.6 ESE 17 24 9 13 1021.5 1019.3 0.0
18/01:30pm 18.0 15.2 11.4 65 3.7 ESE 17 22 9 12 1021.9 1019.7 0.0
18/01:00pm 17.9 14.8 11.7 67 3.5 SE 19 26 10 14 1021.9 1019.7 0.0
18/12:30pm 17.5 14.4 11.6 68 3.3 ESE 19 26 10 14 1022.0 1019.8 0.0
18/12:00pm 17.4 14.4 11.9 70 3.1 ESE 19 26 10 14 1022.2 1020.0 0.0
18/11:30am 17.2 13.8 11.4 68 3.2 SE 20 28 11 15 1022.5 1020.3 0.0
18/11:00am 17.6 14.4 11.9 69 3.2 ESE 20 30 11 16 1022.7 1020.5 0.0
18/10:30am 16.9 13.7 11.9 72 2.8 ESE 20 30 11 16 1022.7 1020.5 0.0
18/10:00am 16.8 13.7 11.6 71 2.9 ESE 19 30 10 16 1023.3 1021.1 0.0
18/09:30am 16.7 13.6 11.5 71 2.9 ESE 19 30 10 16 1023.2 1021.0 0.0
18/09:00am 16.6 14.0 12.0 74 2.6 SE 17 24 9 13 1022.7 1020.5 2.4
18/08:30am 16.6 14.0 12.1 75 2.5 SE 17 24 9 13 1022.4 1020.2 2.4
18/08:00am 16.6 14.1 12.3 76 2.4 SE 17 26 9 14 1022.0 1019.8 2.4
18/07:30am 16.8 14.3 12.2 74 2.6 SE 17 26 9 14 1021.6 1019.4 2.4
18/07:00am 16.8 14.3 12.2 74 2.6 SE 17 26 9 14 1021.2 1019.0 2.4
18/06:30am 17.0 14.8 12.2 73 2.7 SE 15 19 8 10 1021.0 1018.8 2.4
18/06:00am 17.1 14.6 12.3 73 2.7 SSE 17 24 9 13 1020.6 1018.4 2.4
18/05:30am 17.2 15.1 12.4 73 2.7 SSE 15 22 8 12 1020.3 1018.1 2.4
18/05:00am 17.4 14.5 12.3 72 2.9 SE 19 26 10 14 1019.7 1017.5 2.4
18/04:30am 17.5 15.1 12.6 73 2.8 SSE 17 24 9 13 1019.5 1017.3 2.4
18/04:00am 17.7 14.9 13.2 75 2.6 SSE 20 28 11 15 1018.9 1016.7 2.4
18/03:30am 18.0 15.9 14.6 80 2.0 SSE 19 24 10 13 1019.3 1017.1 2.4
18/03:00am 18.0 17.4 15.7 86 1.4 SSE 13 17 7 9 1018.9 1016.7 2.4
18/02:30am 18.2 17.5 15.4 84 1.7 SSE 13 19 7 10 1019.1 1016.9 2.4
18/02:00am 18.2 17.6 15.7 85 1.5 SSE 13 17 7 9 1018.9 1016.7 2.4
18/01:30am 18.3 18.7 16.2 87 1.3 S 9 11 5 6 1018.9 1016.7 2.4
18/01:00am 18.2 18.4 16.7 91 0.9 SSE 11 13 6 7 1019.0 1016.8 2.4
18/12:30am 18.4 19.0 16.8 90 1.0 SSE 9 11 5 6 1019.3 1017.1 2.4
18/12:00am 18.5 19.6 17.0 91 0.9 S 7 9 4 5 1019.6 1017.4 2.4
 
Date/Time
CST
Temp
°C
App
Temp
°C
Dew
Point
Rel
Hum
%
Delta-T
°C
Wind Press
QNH
hPa
Press
MSL
hPa
Rain
since 9 am
mm
Dir
 
Spd
km/h
Gust
km/h
Spd
kts
Gust
kts
17/11:30pm 18.7 21.1 16.9 89 1.1 CALM 0 0 0 0 1019.7 1017.5 2.4
17/11:00pm 18.7 20.4 17.1 90 1.0 SSE 4 7 2 4 1019.9 1017.6 2.4
17/10:30pm 18.7 21.1 16.9 89 1.1 CALM 0 0 0 0 1019.9 1017.6 2.4
17/10:00pm 18.8 21.3 17.2 90 1.0 CALM 0 6 0 3 1020.1 1017.8 2.4
17/09:30pm 18.8 21.2 16.9 89 1.2 CALM 0 0 0 0 1020.2 1017.9 2.4
17/09:00pm 18.9 21.3 17.0 89 1.2 CALM 0 0 0 0 1020.1 1017.8 2.4
17/08:30pm 18.8 21.0 16.5 86 1.4 CALM 0 0 0 0 1019.6 1017.4 2.4
17/08:00pm 18.8 20.9 16.3 85 1.5 CALM 0 0 0 0 1019.5 1017.3 2.4
17/07:30pm 18.8 20.9 16.3 85 1.5 CALM 0 0 0 0 1019.2 1017.0 2.4
17/07:00pm 18.7 19.1 16.4 86 1.4 SSE 9 11 5 6 1018.9 1016.7 2.4
17/06:30pm 18.7 19.1 16.4 86 1.4 SSE 9 11 5 6 1018.6 1016.4 2.4
17/06:00pm 18.8 19.2 16.3 85 1.5 SSE 9 13 5 7 1018.2 1015.9 2.4
17/05:30pm 18.8 19.2 16.3 85 1.5 SE 9 13 5 7 1018.1 1015.8 2.4
17/05:22pm 18.8 18.8 16.3 85 1.5 SE 11 13 6 7 1018.1 1015.8 2.4
17/05:00pm 18.8 18.4 16.3 85 1.5 SSE 13 15 7 8 1017.7 1015.5 2.4
17/04:30pm 18.7 18.9 16.8 89 1.2 SSE 11 15 6 8 1017.9 1015.6 2.4
17/04:00pm 18.8 19.4 16.9 89 1.2 SSE 9 11 5 6 1017.7 1015.5 2.4
17/03:30pm 18.9 19.1 16.8 87 1.3 S 11 13 6 7 1017.7 1015.5 2.4
17/03:00pm 18.8 19.4 16.7 87 1.3 SSE 9 11 5 6 1017.4 1015.2 2.4
17/02:30pm 18.4 19.0 16.8 90 1.0 S 9 13 5 7 1018.0 1015.7 2.4
17/02:00pm 18.5 18.9 17.2 92 0.8 SSW 11 15 6 8 1018.5 1016.2 2.0
17/01:30pm 18.3 18.1 16.8 91 0.9 SSW 13 15 7 8 1019.0 1016.8 2.0
17/01:00pm 18.2 18.1 16.9 92 0.8 S 13 17 7 9 1019.3 1017.1 2.0
17/12:51pm 18.2 18.1 16.9 92 0.8 S 13 15 7 8 1019.3 1017.1 1.8
17/12:30pm 18.5 19.0 17.4 93 0.7 S 11 15 6 8 1019.7 1017.5 1.8
17/12:00pm 18.5 19.1 16.7 89 1.1 S 9 13 5 7 1020.4 1018.2 1.4
17/11:35am 18.5 19.6 17.0 91 0.9 SSE 7 7 4 4 1020.3 1018.1 1.4
17/11:30am 18.5 19.6 17.0 91 0.9 SE 7 9 4 5 1020.3 1018.1 1.2
17/11:11am 18.5 19.6 16.5 88 1.2 SE 6 9 3 5 1020.4 1018.2 0.8
17/11:00am 18.6 20.9 16.8 89 1.1 CALM 0 0 0 0 1020.3 1018.1 0.6
17/10:30am 18.6 19.3 17.0 90 1.0 WSW 9 11 5 6 1020.9 1018.7 0.0
17/10:15am 18.6 18.8 16.8 89 1.1 WSW 11 15 6 8 1021.2 1019.0 0.0
17/10:00am 18.7 19.9 16.9 89 1.1 SSW 6 9 3 5 1021.1 1018.9 0.0
17/09:51am 18.5 19.5 16.9 90 1.0 SSW 7 9 4 5 1021.0 1018.8 0.0
17/09:43am 18.5 19.6 17.0 91 0.9 SSW 7 11 4 6 1021.0 1018.8 0.0
17/09:30am 18.4 19.0 16.8 90 1.0 SSW 9 11 5 6 1021.0 1018.8 0.0
17/09:00am 18.2 18.8 16.9 92 0.8 SSE 9 13 5 7 1020.7 1018.5 5.0
17/08:30am 18.3 19.2 16.5 89 1.1 SSE 7 9 4 5 1020.8 1018.6 5.0

Other Formats:

Comma delimited format used in spreadsheet applications
http://www.bom.gov.au/fwo/IDD60801/IDD60801.94326.axf

JavaScript Object Notation format (JSON) in row-major order
http://www.bom.gov.au/fwo/IDD60801/IDD60801.94326.json